Time;durP1;ratioP1;P1;durP2;ratioP2;P2;SDS_P1;SDS_P2;PMS_P1;PMS_P2;Temp;Humidity;BMP_temperature;BMP_pressure;BME280_temperature;BME280_humidity;BME280_pressure;Samples;Min_cycle;Max_cycle;Signal;HPM_P1;HPM_P2
2023/07/24 00:01:35;;;;;;;9.80;6.90;;;15.50;99.90;14.90;99470;;;;590546;239;24115;-78
2023/07/24 00:04:06;;;;;;;9.27;7.00;;;15.40;99.90;14.90;99480;;;;590339;239;24144;-79
2023/07/24 00:06:31;;;;;;;10.23;7.43;;;15.40;99.90;14.90;99472;;;;599440;239;24051;-78
2023/07/24 00:08:59;;;;;;;9.53;6.17;;;15.50;99.90;14.90;99467;;;;565256;249;24124;-78
2023/07/24 00:11:27;;;;;;;9.83;5.87;;;15.50;99.90;14.90;99452;;;;590372;239;24034;-79
2023/07/24 00:13:55;;;;;;;7.47;6.63;;;15.50;99.90;14.90;99464;;;;565461;249;24188;-77
2023/07/24 00:16:23;;;;;;;12.47;7.00;;;15.50;99.90;14.90;99457;;;;590332;239;24026;-78
2023/07/24 00:18:51;;;;;;;10.20;6.77;;;15.50;99.90;14.90;99453;;;;599446;239;24019;-78
2023/07/24 00:21:19;;;;;;;8.53;6.50;;;15.50;99.90;15.00;99454;;;;590437;239;24117;-78
2023/07/24 00:23:47;;;;;;;13.70;6.80;;;15.50;99.90;14.90;99448;;;;563227;249;24104;-80
2023/07/24 00:26:16;;;;;;;8.80;6.67;;;15.50;99.90;15.00;99456;;;;590374;239;24106;-80
2023/07/24 00:28:44;;;;;;;9.67;6.57;;;15.50;99.90;15.00;99456;;;;590639;239;24050;-79
2023/07/24 00:31:11;;;;;;;8.93;6.57;;;15.50;99.90;15.00;99460;;;;590707;239;24078;-80
2023/07/24 00:33:39;;;;;;;7.17;6.30;;;15.60;99.90;15.00;99462;;;;590615;239;24042;-79
2023/07/24 00:36:07;;;;;;;8.07;6.77;;;15.60;99.90;15.00;99457;;;;590727;239;24011;-79
2023/07/24 00:38:35;;;;;;;8.30;6.47;;;15.60;99.90;15.00;99455;;;;566986;250;24086;-81
2023/07/24 00:41:04;;;;;;;8.87;7.03;;;15.60;99.90;15.00;99445;;;;591739;239;24025;-79
2023/07/24 00:43:32;;;;;;;7.67;6.57;;;15.60;99.90;15.00;99443;;;;591356;239;24060;-77
2023/07/24 00:46:00;;;;;;;7.10;6.00;;;15.60;99.90;14.90;99444;;;;591405;239;24090;-77
2023/07/24 00:48:28;;;;;;;11.53;6.30;;;15.50;99.90;14.80;99451;;;;600085;239;24034;-75
2023/07/24 00:50:56;;;;;;;7.13;6.30;;;15.40;99.90;14.80;99453;;;;590913;239;24048;-77
2023/07/24 00:53:26;;;;;;;7.70;6.80;;;15.40;99.90;14.80;99455;;;;574042;249;24152;-77
2023/07/24 00:55:51;;;;;;;9.43;6.60;;;15.40;99.90;14.80;99448;;;;599887;239;24110;-78
2023/07/24 00:58:19;;;;;;;11.40;6.63;;;15.40;99.90;14.90;99449;;;;565330;249;24142;-77
2023/07/24 01:00:47;;;;;;;7.80;6.10;;;15.40;99.90;14.90;99443;;;;597291;239;24093;-79
2023/07/24 01:03:15;;;;;;;10.37;7.20;;;15.40;99.90;14.80;99443;;;;565779;250;24232;-79
2023/07/24 01:05:46;;;;;;;11.87;6.73;;;15.40;99.90;14.80;99438;;;;591015;239;24059;-77
2023/07/24 01:08:12;;;;;;;9.23;6.63;;;15.30;99.90;14.70;99438;;;;599952;239;24030;-75
2023/07/24 01:10:40;;;;;;;8.77;6.20;;;15.30;99.90;14.60;99434;;;;590855;239;24049;-76
2023/07/24 01:13:16;;;;;;;7.73;6.53;;;15.20;99.90;14.60;99435;;;;590815;239;24083;-76
2023/07/24 01:16:02;;;;;;;14.15;9.73;;;15.10;99.90;14.50;99423;;;;591783;239;35026;-75
2023/07/24 01:18:31;;;;;;;10.63;7.80;;;15.00;99.90;14.50;99419;;;;597254;239;24065;-76
2023/07/24 01:21:02;;;;;;;10.47;6.90;;;15.00;99.90;14.40;99421;;;;599550;239;24028;-76
2023/07/24 01:24:10;;;;;;;9.00;6.30;;;15.00;99.90;14.40;99418;;;;596524;239;24048;-76
2023/07/24 01:26:39;;;;;;;10.53;7.10;;;14.90;99.90;14.30;99419;;;;572384;249;24123;-77
2023/07/24 01:29:07;;;;;;;8.33;6.50;;;14.90;99.90;14.20;99418;;;;599510;239;24047;-78
2023/07/24 01:31:35;;;;;;;8.77;6.57;;;14.80;99.90;14.20;99421;;;;590664;239;24063;-77
2023/07/24 01:34:03;;;;;;;10.70;6.70;;;14.80;99.90;14.20;99416;;;;565491;250;24166;-77
2023/07/24 01:36:31;;;;;;;7.13;5.93;;;14.80;99.90;14.20;99415;;;;590603;239;24077;-78
2023/07/24 01:39:02;;;;;;;8.70;7.20;;;14.70;99.90;14.20;99412;;;;590625;239;24022;-77
2023/07/24 01:41:27;;;;;;;9.53;6.53;;;14.70;99.90;14.20;99408;;;;565609;250;24141;-77
2023/07/24 01:43:55;;;;;;;10.00;6.80;;;14.70;99.90;14.20;99403;;;;590145;239;24042;-81
2023/07/24 01:46:23;;;;;;;13.20;6.77;;;14.80;99.90;14.30;99396;;;;590619;239;24050;-76
2023/07/24 01:48:52;;;;;;;9.53;7.00;;;14.80;99.90;14.20;99394;;;;591574;239;24036;-78
2023/07/24 01:51:19;;;;;;;9.17;7.43;;;14.80;99.90;14.20;99394;;;;591532;236;24035;-76
2023/07/24 01:53:46;;;;;;;10.00;6.03;;;14.80;99.90;14.10;99398;;;;591114;239;24045;-75
2023/07/24 01:56:15;;;;;;;8.33;6.63;;;14.60;99.90;14.10;99394;;;;565951;250;24085;-76
2023/07/24 01:58:44;;;;;;;11.07;7.10;;;14.60;99.90;14.00;99393;;;;590792;239;24115;-76
2023/07/24 02:01:12;;;;;;;15.73;7.73;;;14.60;99.90;14.00;99387;;;;590936;239;24024;-78
2023/07/24 02:03:40;;;;;;;10.07;6.57;;;14.60;99.90;13.90;99383;;;;590911;239;24027;-76
2023/07/24 02:06:08;;;;;;;8.07;6.73;;;14.50;99.90;13.90;99383;;;;590800;239;24060;-79
2023/07/24 02:08:35;;;;;;;10.20;7.10;;;14.50;99.90;13.80;99389;;;;565349;250;24073;-76
2023/07/24 02:11:03;;;;;;;7.00;5.90;;;14.40;99.90;13.80;99385;;;;590503;239;24080;-76
2023/07/24 02:13:32;;;;;;;13.20;7.43;;;14.30;99.90;13.80;99389;;;;590640;239;24023;-75
2023/07/24 02:16:01;;;;;;;8.67;6.70;;;14.30;99.90;13.70;99378;;;;590550;239;24144;-76
2023/07/24 02:18:29;;;;;;;14.27;7.60;;;14.30;99.90;13.70;99388;;;;590704;239;24043;-76
2023/07/24 02:20:57;;;;;;;10.00;6.93;;;14.20;99.90;13.70;99388;;;;590630;239;24056;-76
2023/07/24 02:23:24;;;;;;;11.80;7.30;;;14.20;99.90;13.70;99382;;;;599769;239;25119;-76
2023/07/24 02:25:53;;;;;;;9.57;7.30;;;14.30;99.90;13.70;99376;;;;590371;239;24117;-76
2023/07/24 02:28:20;;;;;;;10.50;7.23;;;14.30;99.90;13.70;99376;;;;590191;239;24073;-77
2023/07/24 02:30:48;;;;;;;12.83;7.80;;;14.30;99.90;13.80;99374;;;;590696;239;24047;-75
2023/07/24 02:33:16;;;;;;;9.97;7.03;;;14.30;99.90;13.80;99372;;;;590720;239;24061;-76
2023/07/24 02:35:44;;;;;;;9.10;7.27;;;14.30;99.90;13.80;99377;;;;590711;239;24016;-76
2023/07/24 02:38:12;;;;;;;8.57;6.97;;;14.40;99.90;13.80;99375;;;;565363;250;24078;-76
2023/07/24 02:40:40;;;;;;;12.53;8.23;;;14.30;99.90;13.70;99369;;;;590668;239;24081;-76
2023/07/24 02:43:08;;;;;;;13.47;7.50;;;14.30;99.90;13.70;99366;;;;597069;239;24054;-75
2023/07/24 02:45:36;;;;;;;10.30;8.10;;;14.30;99.90;13.70;99370;;;;590667;239;24007;-76
2023/07/24 02:48:04;;;;;;;14.00;8.07;;;14.30;99.90;13.70;99362;;;;597038;239;24099;-76
2023/07/24 02:50:31;;;;;;;11.07;8.10;;;14.20;99.90;13.70;99370;;;;590721;239;24026;-76
2023/07/24 02:52:59;;;;;;;10.10;8.40;;;14.20;99.90;13.70;99373;;;;599530;236;24027;-77
2023/07/24 02:55:27;;;;;;;9.57;7.87;;;14.20;99.90;13.70;99372;;;;590665;239;24029;-77
2023/07/24 02:57:55;;;;;;;11.83;8.30;;;14.20;99.90;13.70;99374;;;;565358;250;24104;-76
2023/07/24 03:00:24;;;;;;;8.90;7.53;;;14.30;99.90;13.70;99372;;;;591488;239;24046;-76
2023/07/24 03:02:55;;;;;;;10.97;7.90;;;14.30;99.90;13.70;99373;;;;591488;239;24053;-75
2023/07/24 03:05:23;;;;;;;14.27;8.17;;;14.20;99.90;13.80;99369;;;;591529;239;24079;-76
2023/07/24 03:07:51;;;;;;;9.73;7.53;;;14.30;99.90;13.90;99367;;;;565846;250;24088;-75
2023/07/24 03:10:19;;;;;;;9.60;7.90;;;14.40;99.90;14.00;99368;;;;590758;239;24049;-76
2023/07/24 03:12:46;;;;;;;9.87;7.60;;;14.50;99.90;14.10;99375;;;;590889;239;24064;-76
2023/07/24 03:15:17;;;;;;;14.70;8.10;;;14.60;99.90;14.20;99372;;;;590714;239;24018;-76
2023/07/24 03:17:42;;;;;;;9.90;8.00;;;14.70;99.90;14.20;99375;;;;573916;250;24163;-76
2023/07/24 03:20:16;;;;;;;8.80;7.40;;;14.80;99.90;14.30;99377;;;;599769;239;24017;-78
2023/07/24 03:22:44;;;;;;;8.83;7.27;;;14.90;99.90;14.40;99383;;;;597265;239;24092;-79
2023/07/24 03:25:13;;;;;;;9.20;7.37;;;15.00;99.90;14.50;99382;;;;574293;249;24116;-79
2023/07/24 03:27:45;;;;;;;7.93;7.13;;;15.00;99.90;14.50;99378;;;;600226;239;24010;-76
2023/07/24 03:30:09;;;;;;;11.63;7.13;;;15.10;99.90;14.60;99370;;;;590778;239;24054;-78
2023/07/24 03:32:40;;;;;;;10.47;7.30;;;15.10;99.90;14.70;99363;;;;590543;239;24031;-77
2023/07/24 03:35:05;;;;;;;9.47;7.43;;;15.20;99.90;14.80;99366;;;;596863;239;24070;-76
2023/07/24 03:37:33;;;;;;;9.37;6.60;;;15.20;99.90;14.80;99367;;;;596695;239;24073;-78
2023/07/24 03:40:01;;;;;;;10.37;7.37;;;15.40;99.90;14.90;99365;;;;596684;239;24074;-78
2023/07/24 03:42:28;;;;;;;8.67;7.43;;;15.50;99.90;15.00;99372;;;;590431;239;24086;-76
2023/07/24 03:44:57;;;;;;;11.80;7.80;;;15.60;99.90;15.00;99368;;;;590187;239;24093;-77
2023/07/24 03:47:25;;;;;;;9.93;7.63;;;15.60;99.90;15.10;99372;;;;562754;248;24174;-76
2023/07/24 03:49:53;;;;;;;8.07;7.27;;;15.70;99.90;15.10;99373;;;;599646;239;24047;-76
2023/07/24 03:52:21;;;;;;;9.23;6.87;;;15.70;99.90;15.20;99377;;;;590889;239;24019;-79
2023/07/24 03:54:50;;;;;;;9.40;7.33;;;15.80;99.90;15.20;99368;;;;600139;239;24113;-76
2023/07/24 03:57:20;;;;;;;10.27;6.77;;;15.80;99.90;15.30;99366;;;;590837;239;24076;-77
2023/07/24 03:59:49;;;;;;;10.00;7.00;;;15.80;99.90;15.30;99370;;;;588247;239;24056;-79
2023/07/24 04:02:13;;;;;;;7.80;6.97;;;15.90;99.90;15.40;99360;;;;600071;239;24080;-77
2023/07/24 04:04:41;;;;;;;11.80;7.23;;;15.90;99.90;15.50;99373;;;;565565;250;24161;-77
2023/07/24 04:07:09;;;;;;;7.57;6.43;;;16.00;99.90;15.80;99371;;;;590708;239;24043;-77
2023/07/24 04:09:38;;;;;;;10.10;8.03;;;16.80;99.90;16.30;99371;;;;590789;239;24057;-79
2023/07/24 04:12:06;;;;;;;11.97;7.23;;;16.70;99.90;16.70;99375;;;;591691;239;24060;-76
2023/07/24 04:14:34;;;;;;;9.33;7.67;;;17.20;99.90;17.30;99369;;;;591973;239;24042;-79
2023/07/24 04:17:02;;;;;;;7.73;6.93;;;17.80;99.90;17.60;99375;;;;591776;239;24006;-77
2023/07/24 04:19:30;;;;;;;7.53;6.67;;;18.10;99.90;18.00;99371;;;;566440;250;24115;-78
2023/07/24 04:21:57;;;;;;;7.10;6.40;;;18.50;99.90;18.70;99365;;;;591527;239;24115;-81
2023/07/24 04:24:25;;;;;;;7.83;5.80;;;19.30;99.90;18.90;99372;;;;591362;239;24014;-78
2023/07/24 04:26:53;;;;;;;6.43;5.27;;;19.50;99.90;18.90;99379;;;;600057;239;24073;-79
2023/07/24 04:29:23;;;;;;;5.37;4.87;;;19.60;99.90;19.40;99375;;;;590858;239;23147;-79
2023/07/24 04:31:50;;;;;;;6.27;4.93;;;20.00;99.90;20.30;99367;;;;565758;245;23141;-79
2023/07/24 04:34:18;;;;;;;4.30;3.97;;;21.80;99.90;21.20;99370;;;;591040;236;24088;-78
2023/07/24 04:36:46;;;;;;;5.27;4.77;;;21.70;99.90;21.90;99372;;;;590836;239;24049;-79
2023/07/24 04:39:14;;;;;;;4.30;4.00;;;22.50;99.90;22.70;99361;;;;590908;239;24034;-79
2023/07/24 04:41:41;;;;;;;5.20;4.30;;;23.30;99.90;23.70;99357;;;;565677;250;24142;-79
2023/07/24 04:44:09;;;;;;;4.73;4.30;;;24.40;99.90;24.40;99359;;;;590949;239;23068;-79
2023/07/24 04:46:37;;;;;;;4.10;3.80;;;25.20;99.90;25.70;99358;;;;565717;250;23094;-79
2023/07/24 04:49:05;;;;;;;4.80;4.33;;;26.40;99.90;27.00;99354;;;;590665;239;23092;-79
2023/07/24 04:51:33;;;;;;;4.97;4.57;;;27.70;99.90;28.00;99349;;;;590720;239;23028;-79
2023/07/24 04:54:01;;;;;;;5.22;4.10;;;28.80;99.90;28.70;99347;;;;590662;239;23024;-79
2023/07/24 04:56:29;;;;;;;3.97;3.70;;;29.70;99.90;29.40;99344;;;;573658;248;23096;-80
2023/07/24 04:58:57;;;;;;;5.22;3.97;;;30.40;99.90;30.00;99344;;;;590355;239;23127;-80
2023/07/24 05:01:25;;;;;;;4.32;3.97;;;31.60;98.30;30.60;99356;;;;590233;239;24100;-81
2023/07/24 05:03:53;;;;;;;4.03;3.72;;;31.50;98.10;30.80;99356;;;;565443;250;23097;-80
2023/07/24 05:06:21;;;;;;;4.40;3.97;;;31.80;93.60;30.70;99361;;;;590720;239;23036;-79
2023/07/24 05:08:49;;;;;;;3.90;3.47;;;31.80;92.80;30.60;99370;;;;590617;239;23035;-80
2023/07/24 05:11:18;;;;;;;3.90;3.60;;;31.40;90.90;30.40;99370;;;;590736;239;23112;-77
2023/07/24 05:13:49;;;;;;;5.50;3.33;;;31.30;90.80;29.80;99377;;;;565497;250;23098;-80
2023/07/24 05:16:14;;;;;;;7.03;3.45;;;30.80;91.30;28.80;99386;;;;596813;239;23041;-80
2023/07/24 05:18:42;;;;;;;7.72;4.43;;;29.90;91.40;27.80;99387;;;;590742;239;23028;-80
2023/07/24 05:21:12;;;;;;;4.72;4.15;;;29.00;92.60;26.90;99389;;;;590743;239;23035;-80
2023/07/24 05:23:37;;;;;;;4.22;3.83;;;28.00;93.70;26.10;99389;;;;591264;239;24036;-80
2023/07/24 05:26:06;;;;;;;4.15;3.85;;;26.40;97.20;25.50;99380;;;;592060;239;23100;-79
2023/07/24 05:28:34;;;;;;;6.17;3.67;;;26.30;97.20;25.00;99374;;;;574629;248;23105;-79
2023/07/24 05:31:04;;;;;;;4.03;3.70;;;25.80;98.70;24.70;99379;;;;591167;239;24033;-79
2023/07/24 05:33:32;;;;;;;5.90;3.93;;;25.30;99.90;24.30;99381;;;;591386;239;24064;-79
2023/07/24 05:36:00;;;;;;;5.33;4.00;;;25.00;99.90;24.00;99381;;;;597732;239;24105;-79
2023/07/24 05:38:29;;;;;;;5.67;3.80;;;24.40;99.90;23.80;99381;;;;600374;239;23051;-75
2023/07/24 05:41:00;;;;;;;3.93;3.63;;;24.30;99.90;23.60;99382;;;;591644;239;23082;-77
2023/07/24 05:43:28;;;;;;;5.40;3.60;;;24.10;99.90;23.70;99383;;;;596998;239;23052;-76
2023/07/24 05:45:53;;;;;;;5.07;3.63;;;24.10;99.90;23.90;99380;;;;590814;239;23047;-79
2023/07/24 05:48:21;;;;;;;3.57;3.27;;;24.30;99.90;23.90;99398;;;;587717;239;23085;-78
2023/07/24 05:50:49;;;;;;;6.50;3.97;;;24.30;99.90;23.80;99383;;;;597366;239;23036;-78
2023/07/24 05:53:17;;;;;;;5.63;3.87;;;24.30;99.90;23.70;99384;;;;591124;239;24200;-77
2023/07/24 05:55:45;;;;;;;7.67;4.13;;;24.20;99.90;23.70;99388;;;;597348;239;23035;-74
2023/07/24 05:58:13;;;;;;;3.27;2.97;;;24.10;99.90;23.70;99387;;;;600714;238;23142;-75
2023/07/24 06:00:41;;;;;;;3.23;3.03;;;24.10;99.90;23.80;99386;;;;591218;239;23107;-75
2023/07/24 06:03:09;;;;;;;6.93;3.33;;;24.20;99.90;24.00;99391;;;;591018;239;23094;-80
2023/07/24 06:05:37;;;;;;;7.13;3.83;;;24.40;99.90;24.10;99382;;;;590824;239;23048;-80
2023/07/24 06:08:05;;;;;;;3.70;3.40;;;24.50;99.90;24.00;99379;;;;565570;250;23222;-84
2023/07/24 06:10:33;;;;;;;9.63;3.40;;;24.40;99.90;23.90;99375;;;;590717;239;24026;-83
2023/07/24 06:13:01;;;;;;;4.10;3.70;;;24.40;99.90;23.90;99376;;;;565156;250;23087;-82
2023/07/24 06:15:30;;;;;;;3.80;3.50;;;24.50;99.90;24.20;99380;;;;590533;239;23110;-80
2023/07/24 06:17:58;;;;;;;6.47;3.97;;;24.50;99.90;24.60;99379;;;;590493;239;23075;-80
2023/07/24 06:20:26;;;;;;;7.53;4.00;;;25.00;99.90;25.00;99373;;;;590802;239;24072;-82
2023/07/24 06:22:54;;;;;;;14.37;3.97;;;25.40;99.90;25.50;99380;;;;590365;239;23051;-81
2023/07/24 06:25:22;;;;;;;3.97;3.67;;;26.40;99.90;26.20;99378;;;;590228;239;24050;-78
2023/07/24 06:27:51;;;;;;;3.40;3.10;;;27.20;99.90;26.90;99373;;;;565497;250;24103;-80
2023/07/24 06:30:19;;;;;;;3.30;3.00;;;27.10;99.90;27.60;99373;;;;600635;239;23062;-82
2023/07/24 06:32:47;;;;;;;3.92;3.33;;;27.90;99.90;30.00;99370;;;;591001;239;23093;-79
2023/07/24 06:35:15;;;;;;;4.50;2.80;;;29.90;99.90;32.80;99384;;;;591723;239;23044;-79
2023/07/24 06:37:45;;;;;;;4.87;3.50;;;32.70;95.50;35.10;99378;;;;591860;239;24101;-77
2023/07/24 06:40:13;;;;;;;4.78;3.42;;;35.10;86.90;37.00;99385;;;;591403;239;23036;-79
2023/07/24 06:42:42;;;;;;;5.40;3.10;;;37.00;77.20;38.70;99381;;;;591226;239;23065;-78
2023/07/24 06:45:11;;;;;;;4.72;2.53;;;40.50;60.90;40.30;99379;;;;592364;236;23126;-80
2023/07/24 06:47:40;;;;;;;3.00;2.80;;;42.00;55.80;41.90;99370;;;;598817;236;23075;-81
2023/07/24 06:50:08;;;;;;;4.20;3.03;;;41.80;55.60;43.40;99371;;;;596810;237;23027;-85
2023/07/24 06:52:36;;;;;;;4.82;2.95;;;43.40;52.90;44.60;99381;;;;595603;236;23119;-86
2023/07/24 06:55:06;;;;;;;5.95;2.70;;;46.00;48.00;46.00;99383;;;;594654;237;23172;-81
2023/07/24 06:57:34;;;;;;;7.18;3.45;;;45.90;47.90;46.70;99386;;;;599194;236;23186;-82
2023/07/24 07:00:02;;;;;;;3.67;2.83;;;46.90;45.90;45.60;99397;;;;572580;246;23111;-82
2023/07/24 07:02:30;;;;;;;3.10;2.90;;;45.00;45.10;43.50;99392;;;;580426;246;23138;-80
2023/07/24 07:04:58;;;;;;;3.20;3.00;;;44.90;45.00;41.40;99399;;;;567558;246;23126;-80
2023/07/24 07:07:26;;;;;;;3.42;3.12;;;43.10;46.00;39.20;99397;;;;604473;236;24042;-85
2023/07/24 07:09:54;;;;;;;4.93;3.35;;;41.00;48.20;37.80;99398;;;;600161;237;23021;-83
2023/07/24 07:12:22;;;;;;;3.80;3.12;;;39.30;50.60;36.70;99402;;;;599827;238;23121;-81
2023/07/24 07:14:50;;;;;;;4.72;2.53;;;37.90;52.70;35.90;99402;;;;585165;243;23129;-83
2023/07/24 07:17:18;;;;;;;4.05;3.25;;;36.80;53.40;35.20;99406;;;;605271;238;23019;-83
2023/07/24 07:19:46;;;;;;;4.12;2.78;;;36.00;54.60;34.50;99405;;;;599738;238;23043;-79
2023/07/24 07:22:14;;;;;;;3.37;2.90;;;35.10;55.80;34.00;99396;;;;599237;238;23067;-82
2023/07/24 07:24:43;;;;;;;3.60;2.87;;;34.50;56.70;33.50;99392;;;;579258;243;35268;-80
2023/07/24 07:27:10;;;;;;;7.60;2.58;;;34.00;57.50;33.30;99398;;;;604584;238;23063;-79
2023/07/24 07:29:38;;;;;;;4.18;2.87;;;33.80;58.90;33.60;99391;;;;594824;238;23088;-79
2023/07/24 07:32:10;;;;;;;9.13;2.35;;;33.80;58.90;33.90;99381;;;;599154;238;23053;-80
2023/07/24 07:34:35;;;;;;;2.30;2.12;;;34.10;58.60;34.00;99392;;;;594908;238;23084;-81
2023/07/24 07:37:03;;;;;;;2.70;2.50;;;34.10;58.20;33.80;99390;;;;598741;238;23145;-78
2023/07/24 07:39:31;;;;;;;2.78;2.08;;;34.10;58.20;33.40;99384;;;;592527;238;23059;-78
2023/07/24 07:41:59;;;;;;;2.40;2.30;;;33.80;58.40;32.80;99385;;;;583631;243;23121;-79
2023/07/24 07:44:27;;;;;;;2.65;2.50;;;33.30;59.10;32.40;99383;;;;604088;238;23044;-80
2023/07/24 07:46:54;;;;;;;4.47;2.40;;;32.90;59.70;32.10;99390;;;;584668;243;23071;-80
2023/07/24 07:49:22;;;;;;;4.18;2.75;;;32.50;60.50;31.70;99383;;;;605259;237;23071;-79
2023/07/24 07:51:51;;;;;;;5.60;2.70;;;31.90;64.10;31.50;99381;;;;584534;243;24127;-77
2023/07/24 07:54:19;;;;;;;3.25;2.70;;;31.90;63.30;31.30;99376;;;;595106;237;24038;-81
2023/07/24 07:56:47;;;;;;;5.10;2.62;;;31.70;63.40;30.90;99380;;;;599541;237;23032;-81
2023/07/24 07:59:15;;;;;;;2.17;2.08;;;31.40;63.50;30.60;99376;;;;584531;242;23145;-80
2023/07/24 08:01:45;;;;;;;6.15;2.70;;;31.10;64.50;30.50;99363;;;;604754;237;23106;-79
2023/07/24 08:04:11;;;;;;;3.62;2.72;;;30.90;65.80;30.70;99362;;;;584353;243;23141;-80
2023/07/24 08:06:39;;;;;;;6.60;2.62;;;31.00;66.20;31.20;99360;;;;604878;237;23109;-79
2023/07/24 08:09:07;;;;;;;5.93;2.90;;;31.40;65.30;32.20;99361;;;;584971;243;23089;-80
2023/07/24 08:11:35;;;;;;;3.87;2.97;;;32.20;64.50;34.30;99369;;;;605231;237;23091;-77
2023/07/24 08:14:04;;;;;;;3.83;2.78;;;35.50;59.20;35.50;99365;;;;584812;243;23100;-83
2023/07/24 08:16:31;;;;;;;3.25;2.72;;;35.50;59.10;35.60;99361;;;;604741;237;23063;-83
2023/07/24 08:19:00;;;;;;;2.87;2.67;;;36.00;58.30;35.30;99361;;;;599339;237;23053;-83
2023/07/24 08:21:29;;;;;;;2.33;2.12;;;35.90;56.30;34.60;99366;;;;599482;237;23054;-82
2023/07/24 08:23:57;;;;;;;3.35;3.05;;;35.30;56.70;34.20;99358;;;;584316;243;25194;-83
2023/07/24 08:26:26;;;;;;;2.70;2.60;;;34.90;57.30;33.50;99350;;;;604840;238;23081;-84
2023/07/24 08:28:53;;;;;;;3.00;2.80;;;34.30;58.20;32.70;99346;;;;584739;243;23172;-82
2023/07/24 08:31:21;;;;;;;3.37;3.15;;;33.50;59.30;32.00;99345;;;;605442;238;23087;-80
2023/07/24 08:33:52;;;;;;;3.33;3.12;;;32.80;60.70;31.30;99353;;;;599926;238;23162;-83
2023/07/24 08:36:17;;;;;;;7.00;2.95;;;32.10;62.30;30.90;99358;;;;595426;238;23047;-82
2023/07/24 08:38:47;;;;;;;3.08;2.80;;;31.50;63.10;30.60;99351;;;;599801;238;23056;-81
2023/07/24 08:41:17;;;;;;;2.80;2.60;;;31.10;64.60;30.40;99346;;;;584840;243;23107;-81
2023/07/24 08:43:42;;;;;;;3.58;3.17;;;30.90;65.80;30.10;99343;;;;594652;238;23142;-82
2023/07/24 08:46:13;;;;;;;3.20;3.00;;;30.60;65.40;29.90;99343;;;;604546;238;23040;-81
2023/07/24 08:48:41;;;;;;;4.35;4.00;;;30.30;66.60;30.60;99332;;;;584293;243;24098;-82
2023/07/24 08:51:09;;;;;;;7.82;3.28;;;30.70;67.60;33.30;99330;;;;595029;238;23049;-80
2023/07/24 08:53:41;;;;;;;4.62;3.22;;;35.80;58.30;36.00;99320;;;;599826;238;23146;-81
2023/07/24 08:56:08;;;;;;;2.90;2.70;;;35.70;58.20;37.50;99318;;;;595365;238;23050;-83
2023/07/24 08:58:40;;;;;;;7.47;2.92;;;37.60;55.30;38.50;99319;;;;583911;240;23078;-82
2023/07/24 09:01:04;;;;;;;2.83;2.62;;;38.70;53.40;39.40;99319;;;;601613;237;23094;-83
2023/07/24 09:03:35;;;;;;;3.37;2.28;;;39.70;51.80;40.70;99315;;;;606148;237;23087;-85
2023/07/24 09:06:07;;;;;;;3.22;2.90;;;41.00;50.70;42.60;99311;;;;600675;237;24069;-82
2023/07/24 09:08:39;;;;;;;2.87;2.67;;;42.80;48.80;43.80;99309;;;;600338;237;24081;-81
2023/07/24 09:11:11;;;;;;;3.47;2.70;;;44.20;46.20;45.00;99310;;;;600748;237;23066;-83
2023/07/24 09:13:39;;;;;;;2.80;2.60;;;45.40;44.60;45.40;99299;;;;596402;237;23038;-85
2023/07/24 09:16:07;;;;;;;4.78;2.58;;;46.20;42.90;46.20;99295;;;;605171;237;23120;-81
2023/07/24 09:18:41;;;;;;;2.87;2.67;;;46.90;42.50;47.10;99294;;;;599376;237;23061;-81
2023/07/24 09:21:11;;;;;;;4.68;2.80;;;47.90;41.70;47.80;99294;;;;599840;237;34958;-81
2023/07/24 09:23:39;;;;;;;3.35;3.03;;;48.70;39.50;47.70;99308;;;;584805;243;23143;-80
2023/07/24 09:26:10;;;;;;;2.58;2.47;;;48.80;39.40;48.10;99293;;;;604659;237;24087;-81
2023/07/24 09:28:39;;;;;;;2.97;2.85;;;49.10;39.10;48.50;99307;;;;570170;248;24129;-82
2023/07/24 09:31:04;;;;;;;3.75;2.87;;;49.50;38.80;48.50;99300;;;;598611;237;24070;-81
2023/07/24 09:33:43;;;;;;;4.22;2.80;;;49.70;37.80;48.70;99307;;;;595320;238;23102;-81
2023/07/24 09:36:12;;;;;;;3.15;2.95;;;49.90;38.20;48.60;99296;;;;599019;238;23036;-83
2023/07/24 09:38:39;;;;;;;4.12;3.72;;;50.00;38.00;48.50;99295;;;;578659;248;23133;-82
2023/07/24 09:41:09;;;;;;;10.45;3.42;;;49.80;37.40;48.70;99299;;;;602124;238;23089;-82
2023/07/24 09:43:36;;;;;;;5.32;3.40;;;50.20;37.40;48.80;99307;;;;589324;238;45941;-83
2023/07/24 09:46:01;;;;;;;3.42;3.10;;;50.20;37.40;48.70;99291;;;;598772;238;23100;-81
2023/07/24 09:48:30;;;;;;;3.62;3.30;;;50.20;36.90;48.90;99284;;;;599084;238;23042;-84
2023/07/24 09:51:02;;;;;;;3.62;3.10;;;50.70;36.40;49.40;99291;;;;595108;238;23032;-83
2023/07/24 09:53:48;;;;;;;2.75;2.40;;;50.70;36.40;49.90;99276;;;;581486;238;23084;-85
2023/07/24 09:56:15;;;;;;;5.12;2.90;;;51.20;36.10;49.00;99286;;;;595054;238;23139;-84
2023/07/24 09:58:43;;;;;;;5.32;3.05;;;50.80;36.10;48.50;99280;;;;604559;234;23058;-83
2023/07/24 10:01:14;;;;;;;3.20;3.00;;;50.20;36.60;47.80;99280;;;;605154;238;23090;-82
2023/07/24 10:03:39;;;;;;;4.87;3.30;;;49.60;36.90;46.40;99275;;;;572931;248;23112;-82
2023/07/24 10:06:11;;;;;;;7.20;3.05;;;48.40;37.80;46.90;99276;;;;599363;238;23086;-83
2023/07/24 10:08:35;;;;;;;9.15;3.10;;;48.30;38.00;47.50;99260;;;;599090;238;35012;-86
2023/07/24 10:11:03;;;;;;;3.85;3.30;;;48.60;37.70;47.90;99262;;;;601042;237;23040;-83
2023/07/24 10:13:34;;;;;;;5.03;2.90;;;49.50;37.10;48.10;99254;;;;586032;243;23057;-85
2023/07/24 10:15:59;;;;;;;3.10;2.90;;;49.50;37.10;48.50;99250;;;;596267;237;23057;-83
2023/07/24 10:18:31;;;;;;;3.00;2.80;;;49.80;36.70;48.70;99243;;;;600765;237;23055;-81
2023/07/24 10:21:04;;;;;;;4.95;3.00;;;50.10;36.30;48.30;99252;;;;588814;240;23010;-82
2023/07/24 10:23:29;;;;;;;2.62;2.42;;;49.90;36.10;47.50;99249;;;;566964;252;23122;-80
2023/07/24 10:25:57;;;;;;;4.85;2.85;;;49.20;36.80;46.90;99246;;;;579082;248;23163;-80
2023/07/24 10:28:34;;;;;;;4.43;2.78;;;48.50;37.20;46.50;99240;;;;582756;243;23029;-80
2023/07/24 10:30:58;;;;;;;4.80;2.80;;;48.00;38.50;46.30;99246;;;;558494;253;23232;-81
2023/07/24 10:33:26;;;;;;;2.70;2.50;;;47.70;38.40;45.90;99237;;;;568348;253;23118;-83
2023/07/24 10:35:54;;;;;;;3.05;2.75;;;47.40;38.30;45.20;99239;;;;555850;254;23311;-82
2023/07/24 10:38:22;;;;;;;4.62;2.70;;;46.80;39.00;44.60;99236;;;;592055;243;22983;-81
2023/07/24 10:40:50;;;;;;;4.97;3.12;;;46.20;39.30;43.00;99235;;;;557246;253;23123;-80
2023/07/24 10:43:21;;;;;;;4.95;3.03;;;44.90;39.90;41.10;99232;;;;575778;249;24101;-81
2023/07/24 10:45:54;;;;;;;7.18;2.60;;;43.00;41.90;40.20;99205;;;;569502;249;23167;-81
2023/07/24 10:48:20;;;;;;;3.15;2.62;;;41.70;43.80;39.60;99222;;;;577603;248;23107;-80
2023/07/24 10:50:48;;;;;;;3.40;2.95;;;40.60;45.10;38.80;99223;;;;567285;248;23082;-80
2023/07/24 10:53:18;;;;;;;3.20;3.00;;;39.40;46.90;38.00;99210;;;;577632;248;23161;-80
2023/07/24 10:55:50;;;;;;;3.45;3.25;;;38.40;48.20;37.10;99216;;;;571525;249;23127;-80
2023/07/24 10:58:14;;;;;;;7.10;2.90;;;37.40;49.40;36.20;99222;;;;577252;248;23111;-81
2023/07/24 11:00:48;;;;;;;3.17;2.65;;;36.40;50.40;35.20;99214;;;;577943;248;23143;-80
2023/07/24 11:03:10;;;;;;;2.97;2.53;;;35.50;51.90;34.40;99217;;;;574990;249;23166;-80
2023/07/24 11:05:44;;;;;;;3.42;2.62;;;34.70;52.70;33.80;99210;;;;570485;249;23141;-80
2023/07/24 11:08:15;;;;;;;7.05;3.00;;;34.10;54.40;33.40;99204;;;;573530;249;23144;-80
2023/07/24 11:10:54;;;;;;;8.93;2.60;;;33.60;55.60;33.20;99206;;;;569009;249;23096;-81
2023/07/24 11:13:22;;;;;;;4.05;2.67;;;33.30;56.70;32.90;99203;;;;577021;247;23149;-80
2023/07/24 11:15:54;;;;;;;6.78;2.83;;;33.00;57.10;32.80;99206;;;;568176;249;23105;-80
2023/07/24 11:18:20;;;;;;;4.10;2.90;;;32.80;57.60;32.60;99194;;;;568407;249;24122;-79
2023/07/24 11:20:53;;;;;;;9.45;2.67;;;32.60;58.30;32.50;99206;;;;568780;246;23163;-80
2023/07/24 11:23:18;;;;;;;3.37;2.67;;;32.60;58.30;32.30;99204;;;;577839;248;23114;-82